sensor_id;sensor_type;location;lat;lon;timestamp;temperature;humidity
13332;DHT22;6735;51.456;12.626;2023-11-25T00:01:40;2.60;87.00
13332;DHT22;6735;51.456;12.626;2023-11-25T00:04:06;2.60;86.70
13332;DHT22;6735;51.456;12.626;2023-11-25T00:06:31;2.60;86.70
13332;DHT22;6735;51.456;12.626;2023-11-25T00:08:57;2.60;86.60
13332;DHT22;6735;51.456;12.626;2023-11-25T00:11:22;2.60;86.50
13332;DHT22;6735;51.456;12.626;2023-11-25T00:13:48;2.60;86.40
13332;DHT22;6735;51.456;12.626;2023-11-25T00:16:14;2.60;86.40
13332;DHT22;6735;51.456;12.626;2023-11-25T00:18:39;2.50;86.40
13332;DHT22;6735;51.456;12.626;2023-11-25T00:21:05;2.50;86.30
13332;DHT22;6735;51.456;12.626;2023-11-25T00:23:30;2.50;86.30
13332;DHT22;6735;51.456;12.626;2023-11-25T00:25:56;2.50;86.20
13332;DHT22;6735;51.456;12.626;2023-11-25T00:28:22;2.40;86.10
13332;DHT22;6735;51.456;12.626;2023-11-25T00:30:47;2.40;86.20
13332;DHT22;6735;51.456;12.626;2023-11-25T00:33:13;2.40;86.30
13332;DHT22;6735;51.456;12.626;2023-11-25T00:35:39;2.40;86.30
13332;DHT22;6735;51.456;12.626;2023-11-25T00:38:05;2.30;86.50
13332;DHT22;6735;51.456;12.626;2023-11-25T00:40:36;2.40;86.70
13332;DHT22;6735;51.456;12.626;2023-11-25T00:43:02;2.40;86.70
13332;DHT22;6735;51.456;12.626;2023-11-25T00:45:27;2.40;86.80
13332;DHT22;6735;51.456;12.626;2023-11-25T00:47:53;2.40;86.70
13332;DHT22;6735;51.456;12.626;2023-11-25T00:50:21;2.40;86.60
13332;DHT22;6735;51.456;12.626;2023-11-25T00:52:47;2.40;86.30
13332;DHT22;6735;51.456;12.626;2023-11-25T00:55:12;2.40;86.40
13332;DHT22;6735;51.456;12.626;2023-11-25T00:57:38;2.40;86.20
13332;DHT22;6735;51.456;12.626;2023-11-25T01:00:04;2.40;86.20
13332;DHT22;6735;51.456;12.626;2023-11-25T01:02:31;2.40;86.00
13332;DHT22;6735;51.456;12.626;2023-11-25T01:04:56;2.40;85.80
13332;DHT22;6735;51.456;12.626;2023-11-25T01:07:22;2.30;85.90
13332;DHT22;6735;51.456;12.626;2023-11-25T01:09:47;2.30;85.90
13332;DHT22;6735;51.456;12.626;2023-11-25T01:12:13;2.40;85.90
13332;DHT22;6735;51.456;12.626;2023-11-25T01:14:39;2.40;86.00
13332;DHT22;6735;51.456;12.626;2023-11-25T01:17:04;2.30;86.10
13332;DHT22;6735;51.456;12.626;2023-11-25T01:19:30;2.40;86.40
13332;DHT22;6735;51.456;12.626;2023-11-25T01:21:55;2.30;86.50
13332;DHT22;6735;51.456;12.626;2023-11-25T01:24:21;2.40;86.50
13332;DHT22;6735;51.456;12.626;2023-11-25T01:26:46;2.40;86.50
13332;DHT22;6735;51.456;12.626;2023-11-25T01:29:12;2.40;86.20
13332;DHT22;6735;51.456;12.626;2023-11-25T01:31:38;2.40;86.10
13332;DHT22;6735;51.456;12.626;2023-11-25T01:34:03;2.50;86.10
13332;DHT22;6735;51.456;12.626;2023-11-25T01:36:29;2.50;86.30
13332;DHT22;6735;51.456;12.626;2023-11-25T01:38:55;2.50;86.20
13332;DHT22;6735;51.456;12.626;2023-11-25T01:41:20;2.60;86.10
13332;DHT22;6735;51.456;12.626;2023-11-25T01:43:45;2.60;86.10
13332;DHT22;6735;51.456;12.626;2023-11-25T01:46:11;2.60;86.20
13332;DHT22;6735;51.456;12.626;2023-11-25T01:48:44;2.60;86.00
13332;DHT22;6735;51.456;12.626;2023-11-25T01:51:10;2.60;85.80
13332;DHT22;6735;51.456;12.626;2023-11-25T01:53:36;2.60;85.80
13332;DHT22;6735;51.456;12.626;2023-11-25T01:56:04;2.60;85.50
13332;DHT22;6735;51.456;12.626;2023-11-25T01:58:30;2.60;85.50
13332;DHT22;6735;51.456;12.626;2023-11-25T02:00:56;2.60;85.30
13332;DHT22;6735;51.456;12.626;2023-11-25T02:03:22;2.60;85.30
13332;DHT22;6735;51.456;12.626;2023-11-25T02:05:48;2.60;85.50
13332;DHT22;6735;51.456;12.626;2023-11-25T02:08:13;2.60;85.30
13332;DHT22;6735;51.456;12.626;2023-11-25T02:10:39;2.60;85.40
13332;DHT22;6735;51.456;12.626;2023-11-25T02:13:05;2.60;85.50
13332;DHT22;6735;51.456;12.626;2023-11-25T02:15:37;2.70;85.60
13332;DHT22;6735;51.456;12.626;2023-11-25T02:18:04;2.70;85.60
13332;DHT22;6735;51.456;12.626;2023-11-25T02:20:34;2.60;85.60
13332;DHT22;6735;51.456;12.626;2023-11-25T02:23:18;2.60;85.50
13332;DHT22;6735;51.456;12.626;2023-11-25T02:25:47;2.60;85.70
13332;DHT22;6735;51.456;12.626;2023-11-25T02:28:14;2.60;85.90
13332;DHT22;6735;51.456;12.626;2023-11-25T02:30:39;2.60;85.70
13332;DHT22;6735;51.456;12.626;2023-11-25T02:33:05;2.70;85.70
13332;DHT22;6735;51.456;12.626;2023-11-25T02:35:32;2.60;85.80
13332;DHT22;6735;51.456;12.626;2023-11-25T02:37:58;2.70;85.70
13332;DHT22;6735;51.456;12.626;2023-11-25T02:40:24;2.60;85.60
13332;DHT22;6735;51.456;12.626;2023-11-25T02:42:49;2.60;85.80
13332;DHT22;6735;51.456;12.626;2023-11-25T02:45:19;2.60;85.90
13332;DHT22;6735;51.456;12.626;2023-11-25T02:47:46;2.60;86.00
13332;DHT22;6735;51.456;12.626;2023-11-25T02:50:12;2.60;86.00
13332;DHT22;6735;51.456;12.626;2023-11-25T02:52:39;2.60;85.80
13332;DHT22;6735;51.456;12.626;2023-11-25T02:55:05;2.60;85.70
13332;DHT22;6735;51.456;12.626;2023-11-25T02:57:31;2.50;85.50
13332;DHT22;6735;51.456;12.626;2023-11-25T02:59:57;2.50;85.60
13332;DHT22;6735;51.456;12.626;2023-11-25T03:02:25;2.50;85.40
13332;DHT22;6735;51.456;12.626;2023-11-25T03:04:50;2.40;85.50
13332;DHT22;6735;51.456;12.626;2023-11-25T03:07:15;2.40;85.60
13332;DHT22;6735;51.456;12.626;2023-11-25T03:09:41;2.40;85.40
13332;DHT22;6735;51.456;12.626;2023-11-25T03:12:08;2.40;85.50
13332;DHT22;6735;51.456;12.626;2023-11-25T03:14:34;2.40;85.40
13332;DHT22;6735;51.456;12.626;2023-11-25T03:17:00;2.40;85.60
13332;DHT22;6735;51.456;12.626;2023-11-25T03:19:26;2.40;85.40
13332;DHT22;6735;51.456;12.626;2023-11-25T03:21:52;2.30;85.30
13332;DHT22;6735;51.456;12.626;2023-11-25T03:24:18;2.30;85.10
13332;DHT22;6735;51.456;12.626;2023-11-25T03:26:47;2.30;85.20
13332;DHT22;6735;51.456;12.626;2023-11-25T03:29:12;2.30;85.10
13332;DHT22;6735;51.456;12.626;2023-11-25T03:31:42;2.30;85.00
13332;DHT22;6735;51.456;12.626;2023-11-25T03:34:07;2.30;85.00
13332;DHT22;6735;51.456;12.626;2023-11-25T03:36:33;2.40;85.00
13332;DHT22;6735;51.456;12.626;2023-11-25T03:38:58;2.30;84.90
13332;DHT22;6735;51.456;12.626;2023-11-25T03:41:24;2.30;84.90
13332;DHT22;6735;51.456;12.626;2023-11-25T03:43:49;2.30;85.20
13332;DHT22;6735;51.456;12.626;2023-11-25T03:46:15;2.20;85.30
13332;DHT22;6735;51.456;12.626;2023-11-25T03:48:41;2.20;85.40
13332;DHT22;6735;51.456;12.626;2023-11-25T03:51:09;2.20;85.40
13332;DHT22;6735;51.456;12.626;2023-11-25T03:53:35;2.20;85.30
13332;DHT22;6735;51.456;12.626;2023-11-25T03:56:01;2.20;85.30
13332;DHT22;6735;51.456;12.626;2023-11-25T03:58:27;2.10;85.30
13332;DHT22;6735;51.456;12.626;2023-11-25T04:00:52;2.10;85.10
13332;DHT22;6735;51.456;12.626;2023-11-25T04:03:18;2.10;85.10
13332;DHT22;6735;51.456;12.626;2023-11-25T04:05:43;2.10;85.10
13332;DHT22;6735;51.456;12.626;2023-11-25T04:08:09;2.10;85.10
13332;DHT22;6735;51.456;12.626;2023-11-25T04:10:34;2.10;85.10
13332;DHT22;6735;51.456;12.626;2023-11-25T04:13:00;2.10;85.20
13332;DHT22;6735;51.456;12.626;2023-11-25T04:15:25;2.10;85.10
13332;DHT22;6735;51.456;12.626;2023-11-25T04:17:51;2.10;85.10
13332;DHT22;6735;51.456;12.626;2023-11-25T04:20:17;2.10;85.00
13332;DHT22;6735;51.456;12.626;2023-11-25T04:22:55;2.10;85.00
13332;DHT22;6735;51.456;12.626;2023-11-25T04:25:21;2.10;84.90
13332;DHT22;6735;51.456;12.626;2023-11-25T04:27:48;2.10;84.80
13332;DHT22;6735;51.456;12.626;2023-11-25T04:30:15;2.10;84.80
13332;DHT22;6735;51.456;12.626;2023-11-25T04:32:46;2.10;84.70
13332;DHT22;6735;51.456;12.626;2023-11-25T04:35:12;2.10;84.80
13332;DHT22;6735;51.456;12.626;2023-11-25T04:37:44;2.10;84.80
13332;DHT22;6735;51.456;12.626;2023-11-25T04:40:14;2.00;84.80
13332;DHT22;6735;51.456;12.626;2023-11-25T04:42:40;2.00;84.90
13332;DHT22;6735;51.456;12.626;2023-11-25T04:45:10;2.10;84.80
13332;DHT22;6735;51.456;12.626;2023-11-25T04:47:44;2.00;84.90
13332;DHT22;6735;51.456;12.626;2023-11-25T04:50:10;2.10;84.90
13332;DHT22;6735;51.456;12.626;2023-11-25T04:52:37;2.00;84.70
13332;DHT22;6735;51.456;12.626;2023-11-25T04:55:03;2.00;84.80
13332;DHT22;6735;51.456;12.626;2023-11-25T04:57:28;2.00;84.90
13332;DHT22;6735;51.456;12.626;2023-11-25T04:59:54;2.00;84.80
13332;DHT22;6735;51.456;12.626;2023-11-25T05:02:19;2.00;84.80
13332;DHT22;6735;51.456;12.626;2023-11-25T05:04:46;2.00;84.60
13332;DHT22;6735;51.456;12.626;2023-11-25T05:07:11;2.00;84.70
13332;DHT22;6735;51.456;12.626;2023-11-25T05:09:37;2.00;84.60
13332;DHT22;6735;51.456;12.626;2023-11-25T05:12:04;2.00;84.90
13332;DHT22;6735;51.456;12.626;2023-11-25T05:14:31;2.00;84.80
13332;DHT22;6735;51.456;12.626;2023-11-25T05:16:57;2.00;84.80
13332;DHT22;6735;51.456;12.626;2023-11-25T05:19:22;2.00;84.70
13332;DHT22;6735;51.456;12.626;2023-11-25T05:21:48;2.00;84.90
13332;DHT22;6735;51.456;12.626;2023-11-25T05:24:14;2.00;84.90
13332;DHT22;6735;51.456;12.626;2023-11-25T05:26:40;2.00;84.80
13332;DHT22;6735;51.456;12.626;2023-11-25T05:29:06;1.90;84.90
13332;DHT22;6735;51.456;12.626;2023-11-25T05:31:31;2.00;84.80
13332;DHT22;6735;51.456;12.626;2023-11-25T05:33:59;2.00;84.50
13332;DHT22;6735;51.456;12.626;2023-11-25T05:36:25;1.90;84.60
13332;DHT22;6735;51.456;12.626;2023-11-25T05:38:50;1.90;84.40
13332;DHT22;6735;51.456;12.626;2023-11-25T05:41:16;1.90;84.40
13332;DHT22;6735;51.456;12.626;2023-11-25T05:43:42;2.00;84.40
13332;DHT22;6735;51.456;12.626;2023-11-25T05:46:20;1.90;84.30
13332;DHT22;6735;51.456;12.626;2023-11-25T05:48:46;1.90;84.50
13332;DHT22;6735;51.456;12.626;2023-11-25T05:51:12;2.00;84.30
13332;DHT22;6735;51.456;12.626;2023-11-25T05:53:37;1.90;84.30
13332;DHT22;6735;51.456;12.626;2023-11-25T05:56:03;2.00;84.20
13332;DHT22;6735;51.456;12.626;2023-11-25T05:58:28;2.00;84.30
13332;DHT22;6735;51.456;12.626;2023-11-25T06:00:54;1.90;84.20
13332;DHT22;6735;51.456;12.626;2023-11-25T06:03:20;1.90;84.20
13332;DHT22;6735;51.456;12.626;2023-11-25T06:05:45;1.90;84.20
13332;DHT22;6735;51.456;12.626;2023-11-25T06:08:11;1.80;84.30
13332;DHT22;6735;51.456;12.626;2023-11-25T06:10:36;1.80;84.20
13332;DHT22;6735;51.456;12.626;2023-11-25T06:13:02;1.70;84.40
13332;DHT22;6735;51.456;12.626;2023-11-25T06:15:29;1.70;84.30
13332;DHT22;6735;51.456;12.626;2023-11-25T06:17:55;1.60;84.40
13332;DHT22;6735;51.456;12.626;2023-11-25T06:20:20;1.60;84.40
13332;DHT22;6735;51.456;12.626;2023-11-25T06:22:51;1.60;84.40
13332;DHT22;6735;51.456;12.626;2023-11-25T06:25:17;1.60;84.30
13332;DHT22;6735;51.456;12.626;2023-11-25T06:27:43;1.50;84.30
13332;DHT22;6735;51.456;12.626;2023-11-25T06:30:09;1.50;84.30
13332;DHT22;6735;51.456;12.626;2023-11-25T06:32:34;1.50;84.30
13332;DHT22;6735;51.456;12.626;2023-11-25T06:35:00;1.40;84.30
13332;DHT22;6735;51.456;12.626;2023-11-25T06:37:26;1.40;84.30
13332;DHT22;6735;51.456;12.626;2023-11-25T06:39:52;1.40;84.30
13332;DHT22;6735;51.456;12.626;2023-11-25T06:42:17;1.40;84.50
13332;DHT22;6735;51.456;12.626;2023-11-25T06:44:43;1.30;84.40
13332;DHT22;6735;51.456;12.626;2023-11-25T06:47:12;1.30;84.60
13332;DHT22;6735;51.456;12.626;2023-11-25T06:49:38;1.30;84.80
13332;DHT22;6735;51.456;12.626;2023-11-25T06:52:04;1.30;85.00
13332;DHT22;6735;51.456;12.626;2023-11-25T06:54:29;1.30;85.20
13332;DHT22;6735;51.456;12.626;2023-11-25T06:56:56;1.40;85.30
13332;DHT22;6735;51.456;12.626;2023-11-25T06:59:21;1.40;85.40
13332;DHT22;6735;51.456;12.626;2023-11-25T07:01:47;1.40;85.30
13332;DHT22;6735;51.456;12.626;2023-11-25T07:04:13;1.40;85.30
13332;DHT22;6735;51.456;12.626;2023-11-25T07:06:39;1.50;85.20
13332;DHT22;6735;51.456;12.626;2023-11-25T07:09:05;1.50;85.20
13332;DHT22;6735;51.456;12.626;2023-11-25T07:11:31;1.60;85.30
13332;DHT22;6735;51.456;12.626;2023-11-25T07:13:58;1.60;85.20
13332;DHT22;6735;51.456;12.626;2023-11-25T07:16:24;1.60;85.00
13332;DHT22;6735;51.456;12.626;2023-11-25T07:18:49;1.60;84.70
13332;DHT22;6735;51.456;12.626;2023-11-25T07:21:15;1.60;84.80
13332;DHT22;6735;51.456;12.626;2023-11-25T07:23:41;1.60;84.80
13332;DHT22;6735;51.456;12.626;2023-11-25T07:26:08;1.60;84.60
13332;DHT22;6735;51.456;12.626;2023-11-25T07:28:37;1.60;84.40
13332;DHT22;6735;51.456;12.626;2023-11-25T07:31:02;1.70;84.60
13332;DHT22;6735;51.456;12.626;2023-11-25T07:33:28;1.70;84.70
13332;DHT22;6735;51.456;12.626;2023-11-25T07:35:53;1.70;84.40
13332;DHT22;6735;51.456;12.626;2023-11-25T07:38:19;1.70;84.10
13332;DHT22;6735;51.456;12.626;2023-11-25T07:40:44;1.70;84.20
13332;DHT22;6735;51.456;12.626;2023-11-25T07:43:10;1.80;83.90
13332;DHT22;6735;51.456;12.626;2023-11-25T07:45:35;1.80;84.10
13332;DHT22;6735;51.456;12.626;2023-11-25T07:48:01;1.90;83.80
13332;DHT22;6735;51.456;12.626;2023-11-25T07:50:26;1.90;83.60
13332;DHT22;6735;51.456;12.626;2023-11-25T07:52:52;2.00;83.80
13332;DHT22;6735;51.456;12.626;2023-11-25T07:55:18;2.00;83.30
13332;DHT22;6735;51.456;12.626;2023-11-25T07:57:44;2.10;83.80
13332;DHT22;6735;51.456;12.626;2023-11-25T08:00:10;2.10;83.60
13332;DHT22;6735;51.456;12.626;2023-11-25T08:02:44;2.10;83.30
13332;DHT22;6735;51.456;12.626;2023-11-25T08:05:09;2.20;83.30
13332;DHT22;6735;51.456;12.626;2023-11-25T08:07:37;2.30;83.00
13332;DHT22;6735;51.456;12.626;2023-11-25T08:10:02;2.30;83.00
13332;DHT22;6735;51.456;12.626;2023-11-25T08:12:30;2.30;83.00
13332;DHT22;6735;51.456;12.626;2023-11-25T08:14:56;2.30;82.70
13332;DHT22;6735;51.456;12.626;2023-11-25T08:17:21;2.40;82.80
13332;DHT22;6735;51.456;12.626;2023-11-25T08:19:47;2.40;82.40
13332;DHT22;6735;51.456;12.626;2023-11-25T08:22:12;2.40;82.20
13332;DHT22;6735;51.456;12.626;2023-11-25T08:24:38;2.60;82.60
13332;DHT22;6735;51.456;12.626;2023-11-25T08:27:04;2.60;82.40
13332;DHT22;6735;51.456;12.626;2023-11-25T08:29:30;2.60;82.10
13332;DHT22;6735;51.456;12.626;2023-11-25T08:31:55;2.60;81.90
13332;DHT22;6735;51.456;12.626;2023-11-25T08:34:21;2.70;82.30
13332;DHT22;6735;51.456;12.626;2023-11-25T08:36:47;2.80;82.10
13332;DHT22;6735;51.456;12.626;2023-11-25T08:39:22;2.80;81.80
13332;DHT22;6735;51.456;12.626;2023-11-25T08:41:52;2.90;81.60
13332;DHT22;6735;51.456;12.626;2023-11-25T08:44:19;2.80;81.50
13332;DHT22;6735;51.456;12.626;2023-11-25T08:46:45;2.80;81.70
13332;DHT22;6735;51.456;12.626;2023-11-25T08:49:12;2.70;82.70
13332;DHT22;6735;51.456;12.626;2023-11-25T08:51:42;2.70;82.70
13332;DHT22;6735;51.456;12.626;2023-11-25T08:54:14;2.70;83.00
13332;DHT22;6735;51.456;12.626;2023-11-25T08:56:41;2.90;84.90
13332;DHT22;6735;51.456;12.626;2023-11-25T08:59:09;2.90;84.00
13332;DHT22;6735;51.456;12.626;2023-11-25T09:01:38;2.90;83.60
13332;DHT22;6735;51.456;12.626;2023-11-25T09:04:05;3.00;83.00
13332;DHT22;6735;51.456;12.626;2023-11-25T09:06:34;3.00;82.90
13332;DHT22;6735;51.456;12.626;2023-11-25T09:09:03;3.00;81.90
13332;DHT22;6735;51.456;12.626;2023-11-25T09:11:30;3.10;82.70
13332;DHT22;6735;51.456;12.626;2023-11-25T09:13:55;3.20;82.40
13332;DHT22;6735;51.456;12.626;2023-11-25T09:16:21;3.30;81.90
13332;DHT22;6735;51.456;12.626;2023-11-25T09:18:46;3.40;82.40
13332;DHT22;6735;51.456;12.626;2023-11-25T09:21:12;3.40;81.60
13332;DHT22;6735;51.456;12.626;2023-11-25T09:23:39;3.50;82.10
13332;DHT22;6735;51.456;12.626;2023-11-25T09:26:04;3.50;80.30
13332;DHT22;6735;51.456;12.626;2023-11-25T09:28:30;3.70;81.70
13332;DHT22;6735;51.456;12.626;2023-11-25T09:30:55;3.70;80.90
13332;DHT22;6735;51.456;12.626;2023-11-25T09:33:21;3.60;80.60
13332;DHT22;6735;51.456;12.626;2023-11-25T09:35:47;3.60;80.30
13332;DHT22;6735;51.456;12.626;2023-11-25T09:38:13;3.60;80.50
13332;DHT22;6735;51.456;12.626;2023-11-25T09:40:39;3.60;80.50
13332;DHT22;6735;51.456;12.626;2023-11-25T09:43:05;3.50;80.20
13332;DHT22;6735;51.456;12.626;2023-11-25T09:45:30;3.50;80.80
13332;DHT22;6735;51.456;12.626;2023-11-25T09:47:56;3.50;80.90
13332;DHT22;6735;51.456;12.626;2023-11-25T09:50:22;3.50;81.20
13332;DHT22;6735;51.456;12.626;2023-11-25T09:52:52;3.50;81.50
13332;DHT22;6735;51.456;12.626;2023-11-25T09:55:18;3.60;81.80
13332;DHT22;6735;51.456;12.626;2023-11-25T09:57:49;3.70;82.00
13332;DHT22;6735;51.456;12.626;2023-11-25T10:00:18;3.80;81.90
13332;DHT22;6735;51.456;12.626;2023-11-25T10:02:51;3.70;81.80
13332;DHT22;6735;51.456;12.626;2023-11-25T10:05:20;3.70;81.90
13332;DHT22;6735;51.456;12.626;2023-11-25T10:07:46;3.80;82.10
13332;DHT22;6735;51.456;12.626;2023-11-25T10:10:12;3.80;82.50
13332;DHT22;6735;51.456;12.626;2023-11-25T10:12:40;3.80;82.70
13332;DHT22;6735;51.456;12.626;2023-11-25T10:15:06;3.80;82.90
13332;DHT22;6735;51.456;12.626;2023-11-25T10:17:33;3.70;83.50
13332;DHT22;6735;51.456;12.626;2023-11-25T10:20:05;3.70;83.70
13332;DHT22;6735;51.456;12.626;2023-11-25T10:22:43;3.80;83.60
13332;DHT22;6735;51.456;12.626;2023-11-25T10:25:10;3.70;83.70
13332;DHT22;6735;51.456;12.626;2023-11-25T10:27:36;3.70;84.10
13332;DHT22;6735;51.456;12.626;2023-11-25T10:30:02;3.70;84.00
13332;DHT22;6735;51.456;12.626;2023-11-25T10:32:32;3.70;83.70
13332;DHT22;6735;51.456;12.626;2023-11-25T10:34:59;3.70;84.10
13332;DHT22;6735;51.456;12.626;2023-11-25T10:37:24;3.80;85.60
13332;DHT22;6735;51.456;12.626;2023-11-25T10:39:51;3.80;84.50
13332;DHT22;6735;51.456;12.626;2023-11-25T10:42:17;3.70;84.20
13332;DHT22;6735;51.456;12.626;2023-11-25T10:44:42;3.60;84.10
13332;DHT22;6735;51.456;12.626;2023-11-25T10:47:31;3.60;84.60
13332;DHT22;6735;51.456;12.626;2023-11-25T10:49:58;3.50;84.70
13332;DHT22;6735;51.456;12.626;2023-11-25T10:52:31;3.40;85.00
13332;DHT22;6735;51.456;12.626;2023-11-25T10:55:07;3.40;84.90
13332;DHT22;6735;51.456;12.626;2023-11-25T10:57:34;3.40;84.90
13332;DHT22;6735;51.456;12.626;2023-11-25T11:00:00;3.20;85.10
13332;DHT22;6735;51.456;12.626;2023-11-25T11:02:34;3.20;85.10
13332;DHT22;6735;51.456;12.626;2023-11-25T11:05:12;3.10;85.20
13332;DHT22;6735;51.456;12.626;2023-11-25T11:07:44;3.10;85.50
13332;DHT22;6735;51.456;12.626;2023-11-25T11:10:11;3.00;85.60
13332;DHT22;6735;51.456;12.626;2023-11-25T11:12:42;3.00;85.60
13332;DHT22;6735;51.456;12.626;2023-11-25T11:15:14;2.90;85.70
13332;DHT22;6735;51.456;12.626;2023-11-25T11:18:03;2.90;85.70
13332;DHT22;6735;51.456;12.626;2023-11-25T11:20:36;2.80;85.70
13332;DHT22;6735;51.456;12.626;2023-11-25T11:23:03;2.80;85.90
13332;DHT22;6735;51.456;12.626;2023-11-25T11:28:19;2.80;86.30
13332;DHT22;6735;51.456;12.626;2023-11-25T11:31:41;2.80;86.30
13332;DHT22;6735;51.456;12.626;2023-11-25T11:33:40;2.80;86.50
13332;DHT22;6735;51.456;12.626;2023-11-25T11:36:05;2.70;86.90
13332;DHT22;6735;51.456;12.626;2023-11-25T11:38:31;2.70;86.80
13332;DHT22;6735;51.456;12.626;2023-11-25T11:43:36;2.80;87.10
13332;DHT22;6735;51.456;12.626;2023-11-25T11:46:03;2.80;87.20
13332;DHT22;6735;51.456;12.626;2023-11-25T11:48:30;2.80;87.50
13332;DHT22;6735;51.456;12.626;2023-11-25T11:50:55;2.80;87.40
13332;DHT22;6735;51.456;12.626;2023-11-25T11:53:21;2.90;87.90
13332;DHT22;6735;51.456;12.626;2023-11-25T11:55:55;3.00;87.70
13332;DHT22;6735;51.456;12.626;2023-11-25T11:58:24;3.10;87.60
13332;DHT22;6735;51.456;12.626;2023-11-25T12:03:32;3.20;87.30
13332;DHT22;6735;51.456;12.626;2023-11-25T12:05:58;3.10;87.70
13332;DHT22;6735;51.456;12.626;2023-11-25T12:08:24;3.20;87.70
13332;DHT22;6735;51.456;12.626;2023-11-25T12:10:51;3.30;87.90
13332;DHT22;6735;51.456;12.626;2023-11-25T12:13:35;3.30;87.90
13332;DHT22;6735;51.456;12.626;2023-11-25T12:16:05;3.40;87.70
13332;DHT22;6735;51.456;12.626;2023-11-25T12:18:34;3.40;87.80
13332;DHT22;6735;51.456;12.626;2023-11-25T12:21:00;3.40;87.60
13332;DHT22;6735;51.456;12.626;2023-11-25T12:23:27;3.40;87.60
13332;DHT22;6735;51.456;12.626;2023-11-25T12:25:57;3.50;88.00
13332;DHT22;6735;51.456;12.626;2023-11-25T12:28:23;3.50;88.00
13332;DHT22;6735;51.456;12.626;2023-11-25T12:30:49;3.60;87.80
13332;DHT22;6735;51.456;12.626;2023-11-25T12:33:16;3.60;87.70
13332;DHT22;6735;51.456;12.626;2023-11-25T12:35:42;3.70;87.50
13332;DHT22;6735;51.456;12.626;2023-11-25T12:38:14;3.70;87.20
13332;DHT22;6735;51.456;12.626;2023-11-25T12:40:41;3.70;87.40
13332;DHT22;6735;51.456;12.626;2023-11-25T12:43:07;3.70;87.70
13332;DHT22;6735;51.456;12.626;2023-11-25T12:45:40;3.70;87.30
13332;DHT22;6735;51.456;12.626;2023-11-25T12:48:10;3.80;87.40
13332;DHT22;6735;51.456;12.626;2023-11-25T12:53:25;3.80;87.00
13332;DHT22;6735;51.456;12.626;2023-11-25T12:55:51;3.80;87.20
13332;DHT22;6735;51.456;12.626;2023-11-25T12:58:18;3.90;87.20
13332;DHT22;6735;51.456;12.626;2023-11-25T13:00:49;3.90;87.00
13332;DHT22;6735;51.456;12.626;2023-11-25T13:03:27;3.90;87.10
13332;DHT22;6735;51.456;12.626;2023-11-25T13:06:03;3.90;87.20
13332;DHT22;6735;51.456;12.626;2023-11-25T13:08:35;3.90;87.60
13332;DHT22;6735;51.456;12.626;2023-11-25T13:11:04;3.90;87.70
13332;DHT22;6735;51.456;12.626;2023-11-25T13:13:31;3.90;87.70
13332;DHT22;6735;51.456;12.626;2023-11-25T13:15:58;3.90;87.70
13332;DHT22;6735;51.456;12.626;2023-11-25T13:18:24;4.00;87.60
13332;DHT22;6735;51.456;12.626;2023-11-25T13:20:51;4.00;87.30
13332;DHT22;6735;51.456;12.626;2023-11-25T13:23:17;4.00;87.40
13332;DHT22;6735;51.456;12.626;2023-11-25T13:25:44;4.00;87.70
13332;DHT22;6735;51.456;12.626;2023-11-25T13:28:09;4.00;87.70
13332;DHT22;6735;51.456;12.626;2023-11-25T13:30:36;4.00;87.80
13332;DHT22;6735;51.456;12.626;2023-11-25T13:33:01;4.00;87.60
13332;DHT22;6735;51.456;12.626;2023-11-25T13:35:27;4.00;87.90
13332;DHT22;6735;51.456;12.626;2023-11-25T13:37:56;4.00;87.90
13332;DHT22;6735;51.456;12.626;2023-11-25T13:40:24;3.90;88.20
13332;DHT22;6735;51.456;12.626;2023-11-25T13:42:55;4.00;88.10
13332;DHT22;6735;51.456;12.626;2023-11-25T13:45:20;4.00;87.80
13332;DHT22;6735;51.456;12.626;2023-11-25T13:47:46;3.90;87.40
13332;DHT22;6735;51.456;12.626;2023-11-25T13:50:14;3.90;87.70
13332;DHT22;6735;51.456;12.626;2023-11-25T13:52:40;3.90;87.60
13332;DHT22;6735;51.456;12.626;2023-11-25T13:55:06;3.90;88.00
13332;DHT22;6735;51.456;12.626;2023-11-25T13:57:32;3.90;87.80
13332;DHT22;6735;51.456;12.626;2023-11-25T13:59:58;3.80;88.00
13332;DHT22;6735;51.456;12.626;2023-11-25T14:02:24;3.90;88.30
13332;DHT22;6735;51.456;12.626;2023-11-25T14:04:53;3.90;88.10
13332;DHT22;6735;51.456;12.626;2023-11-25T14:07:18;3.90;88.00
13332;DHT22;6735;51.456;12.626;2023-11-25T14:09:44;3.90;88.10
13332;DHT22;6735;51.456;12.626;2023-11-25T14:12:10;3.90;88.40
13332;DHT22;6735;51.456;12.626;2023-11-25T14:14:35;3.90;88.40
13332;DHT22;6735;51.456;12.626;2023-11-25T14:17:01;3.90;88.20
13332;DHT22;6735;51.456;12.626;2023-11-25T14:19:27;3.90;88.40
13332;DHT22;6735;51.456;12.626;2023-11-25T14:21:52;4.00;88.30
13332;DHT22;6735;51.456;12.626;2023-11-25T14:24:18;4.00;88.30
13332;DHT22;6735;51.456;12.626;2023-11-25T14:26:44;4.00;88.20
13332;DHT22;6735;51.456;12.626;2023-11-25T14:29:09;4.00;88.20
13332;DHT22;6735;51.456;12.626;2023-11-25T14:31:35;4.00;88.20
13332;DHT22;6735;51.456;12.626;2023-11-25T14:34:01;4.00;88.00
13332;DHT22;6735;51.456;12.626;2023-11-25T14:36:27;4.00;88.00
13332;DHT22;6735;51.456;12.626;2023-11-25T14:38:53;4.00;88.10
13332;DHT22;6735;51.456;12.626;2023-11-25T14:41:22;4.00;88.10
13332;DHT22;6735;51.456;12.626;2023-11-25T14:43:49;4.10;88.10
13332;DHT22;6735;51.456;12.626;2023-11-25T14:46:15;4.10;88.00
13332;DHT22;6735;51.456;12.626;2023-11-25T14:48:41;4.00;88.10
13332;DHT22;6735;51.456;12.626;2023-11-25T14:51:06;4.00;88.00
13332;DHT22;6735;51.456;12.626;2023-11-25T14:53:32;4.00;87.90
13332;DHT22;6735;51.456;12.626;2023-11-25T14:55:57;4.00;87.80
13332;DHT22;6735;51.456;12.626;2023-11-25T14:58:23;4.00;87.90
13332;DHT22;6735;51.456;12.626;2023-11-25T15:00:50;3.90;87.80
13332;DHT22;6735;51.456;12.626;2023-11-25T15:03:17;3.90;87.70
13332;DHT22;6735;51.456;12.626;2023-11-25T15:05:43;3.90;87.90
13332;DHT22;6735;51.456;12.626;2023-11-25T15:08:09;3.90;88.00
13332;DHT22;6735;51.456;12.626;2023-11-25T15:10:35;3.80;87.90
13332;DHT22;6735;51.456;12.626;2023-11-25T15:13:02;3.90;88.00
13332;DHT22;6735;51.456;12.626;2023-11-25T15:15:27;3.90;87.90
13332;DHT22;6735;51.456;12.626;2023-11-25T15:17:53;3.90;87.90
13332;DHT22;6735;51.456;12.626;2023-11-25T15:20:19;3.90;87.80
13332;DHT22;6735;51.456;12.626;2023-11-25T15:22:45;3.90;87.80
13332;DHT22;6735;51.456;12.626;2023-11-25T15:25:10;3.90;87.70
13332;DHT22;6735;51.456;12.626;2023-11-25T15:27:36;3.80;87.80
13332;DHT22;6735;51.456;12.626;2023-11-25T15:30:03;3.80;88.00
13332;DHT22;6735;51.456;12.626;2023-11-25T15:32:36;3.80;87.80
13332;DHT22;6735;51.456;12.626;2023-11-25T15:35:02;3.80;87.90
13332;DHT22;6735;51.456;12.626;2023-11-25T15:37:29;3.80;88.00
13332;DHT22;6735;51.456;12.626;2023-11-25T15:39:55;3.70;87.90
13332;DHT22;6735;51.456;12.626;2023-11-25T15:42:20;3.80;87.80
13332;DHT22;6735;51.456;12.626;2023-11-25T15:44:46;3.70;88.00
13332;DHT22;6735;51.456;12.626;2023-11-25T15:47:12;3.70;88.00
13332;DHT22;6735;51.456;12.626;2023-11-25T15:49:37;3.70;88.00
13332;DHT22;6735;51.456;12.626;2023-11-25T15:52:03;3.70;88.00
13332;DHT22;6735;51.456;12.626;2023-11-25T15:54:29;3.60;88.20